Time;durP1;ratioP1;P1;durP2;ratioP2;P2;SDS_P1;SDS_P2;PMS_P1;PMS_P2;Temp;Humidity;BMP_temperature;BMP_pressure;BME280_temperature;BME280_humidity;BME280_pressure;Samples;Min_cycle;Max_cycle;Signal;HPM_P1;HPM_P2
2023/05/02 00:00:06;;;;;;;7.93;7.23;;;;;;;;;;5045463;28;20187;-78
2023/05/02 00:02:32;;;;;;;7.80;7.10;;;;;;;;;;5043450;28;20203;-78
2023/05/02 00:04:57;;;;;;;7.67;6.97;;;;;;;;;;5047275;28;20187;-78
2023/05/02 00:07:22;;;;;;;8.10;7.40;;;;;;;;;;5047300;28;20172;-78
2023/05/02 00:09:47;;;;;;;8.13;7.30;;;;;;;;;;5048909;28;20192;-78
2023/05/02 00:12:13;;;;;;;7.90;7.07;;;;;;;;;;5043631;28;20235;-78
2023/05/02 00:14:38;;;;;;;7.73;6.97;;;;;;;;;;5037490;28;20271;-78
2023/05/02 00:17:03;;;;;;;7.43;6.83;;;;;;;;;;5046297;28;20190;-78
2023/05/02 00:19:28;;;;;;;8.87;7.07;;;;;;;;;;5047487;28;20185;-78
2023/05/02 00:21:53;;;;;;;8.30;7.57;;;;;;;;;;5047610;28;20188;-78
2023/05/02 00:24:19;;;;;;;8.00;7.30;;;;;;;;;;5049263;28;20176;-78
2023/05/02 00:26:44;;;;;;;8.47;7.40;;;;;;;;;;5045136;28;20175;-78
2023/05/02 00:29:09;;;;;;;7.37;6.77;;;;;;;;;;5049356;28;20346;-78
2023/05/02 00:31:35;;;;;;;7.90;7.17;;;;;;;;;;5050071;28;20175;-78
2023/05/02 00:34:00;;;;;;;7.77;7.07;;;;;;;;;;5044390;28;20211;-78
2023/05/02 00:36:26;;;;;;;8.87;8.07;;;;;;;;;;5049264;28;20185;-78
2023/05/02 00:38:51;;;;;;;8.50;7.70;;;;;;;;;;5044965;28;20179;-78
2023/05/02 00:41:16;;;;;;;8.80;7.93;;;;;;;;;;5062992;28;20207;-78
2023/05/02 00:43:42;;;;;;;8.57;7.70;;;;;;;;;;5045780;28;20179;-78
2023/05/02 00:46:07;;;;;;;9.13;8.37;;;;;;;;;;5042742;28;20186;-78
2023/05/02 00:48:33;;;;;;;8.87;8.07;;;;;;;;;;5044029;28;20180;-78
2023/05/02 00:51:01;;;;;;;8.10;7.33;;;;;;;;;;5043392;28;20182;-78
2023/05/02 00:53:26;;;;;;;9.13;8.30;;;;;;;;;;5046333;28;20203;-78
2023/05/02 00:55:53;;;;;;;9.50;8.60;;;;;;;;;;5048077;28;20181;-78
2023/05/02 00:58:18;;;;;;;9.27;8.37;;;;;;;;;;5045349;28;20183;-78
2023/05/02 01:00:57;;;;;;;8.97;8.17;;;;;;;;;;5039121;28;20193;-78
2023/05/02 01:03:32;;;;;;;9.03;8.13;;;;;;;;;;5042126;28;20195;-78
2023/05/02 01:06:00;;;;;;;8.80;7.90;;;;;;;;;;5048269;28;20171;-78
2023/05/02 01:08:33;;;;;;;9.30;8.40;;;;;;;;;;5046688;28;20180;-78
2023/05/02 01:11:05;;;;;;;9.10;8.17;;;;;;;;;;5046389;28;20280;-78
2023/05/02 01:13:32;;;;;;;9.30;8.30;;;;;;;;;;5039745;28;20214;-78
2023/05/02 01:15:58;;;;;;;9.77;7.93;;;;;;;;;;5047397;28;20178;-78
2023/05/02 01:18:24;;;;;;;9.63;8.70;;;;;;;;;;5039449;28;20178;-78
2023/05/02 01:20:56;;;;;;;9.03;8.23;;;;;;;;;;5049085;28;20188;-78
2023/05/02 01:23:24;;;;;;;9.07;8.17;;;;;;;;;;5047436;28;20188;-78
2023/05/02 01:26:01;;;;;;;10.53;8.90;;;;;;;;;;5046663;28;20182;-78
2023/05/02 01:28:29;;;;;;;9.40;8.33;;;;;;;;;;5046351;28;20276;-78
2023/05/02 01:30:55;;;;;;;9.53;8.53;;;;;;;;;;5063542;28;20207;-78
2023/05/02 01:33:21;;;;;;;9.33;8.33;;;;;;;;;;5049229;28;20194;-78
2023/05/02 01:35:49;;;;;;;9.60;8.60;;;;;;;;;;5050600;28;20179;-78
2023/05/02 01:38:15;;;;;;;10.63;8.83;;;;;;;;;;5045985;28;20171;-78
2023/05/02 01:40:43;;;;;;;10.47;9.40;;;;;;;;;;5056767;28;20182;-78
2023/05/02 01:43:10;;;;;;;10.13;9.13;;;;;;;;;;5045604;28;20172;-78
2023/05/02 01:45:37;;;;;;;10.53;9.47;;;;;;;;;;5049762;28;20178;-78
2023/05/02 01:48:03;;;;;;;12.00;9.73;;;;;;;;;;5042050;28;20179;-78
2023/05/02 01:50:29;;;;;;;10.43;9.43;;;;;;;;;;5046729;28;20231;-78
2023/05/02 01:52:57;;;;;;;11.30;10.20;;;;;;;;;;5049410;28;20280;-78
2023/05/02 01:55:23;;;;;;;10.13;9.13;;;;;;;;;;5044242;28;20183;-78
2023/05/02 01:57:49;;;;;;;10.93;9.53;;;;;;;;;;5045619;28;20176;-78
2023/05/02 02:00:18;;;;;;;10.17;9.03;;;;;;;;;;5050507;28;20229;-78
2023/05/02 02:02:44;;;;;;;10.10;9.10;;;;;;;;;;5045977;28;20226;-78
2023/05/02 02:05:09;;;;;;;11.13;10.03;;;;;;;;;;5042945;28;20196;-78
2023/05/02 02:07:35;;;;;;;11.27;10.17;;;;;;;;;;5045068;28;20187;-78
2023/05/02 02:10:00;;;;;;;13.20;10.50;;;;;;;;;;5051812;28;20174;-78
2023/05/02 02:12:40;;;;;;;9.93;8.90;;;;;;;;;;5036074;28;20211;-78
2023/05/02 02:15:09;;;;;;;10.80;9.77;;;;;;;;;;5040068;28;20178;-78
2023/05/02 02:18:03;;;;;;;10.00;8.93;;;;;;;;;;5042126;28;20170;-78
2023/05/02 02:20:30;;;;;;;10.37;8.73;;;;;;;;;;5040132;28;20186;-78
2023/05/02 02:22:56;;;;;;;13.37;9.63;;;;;;;;;;5046723;28;20209;-78
2023/05/02 02:25:22;;;;;;;9.37;8.43;;;;;;;;;;5046454;28;20231;-78
2023/05/02 02:27:48;;;;;;;10.20;9.20;;;;;;;;;;5040639;28;20179;-78
2023/05/02 02:30:13;;;;;;;9.73;8.80;;;;;;;;;;5043088;28;20250;-79
2023/05/02 02:32:38;;;;;;;11.10;9.10;;;;;;;;;;5048788;28;20194;-78
2023/05/02 02:35:04;;;;;;;9.90;8.10;;;;;;;;;;5045899;28;20178;-80
2023/05/02 02:37:47;;;;;;;10.90;9.03;;;;;;;;;;5045734;28;20818;-78
2023/05/02 02:40:31;;;;;;;8.60;7.80;;;;;;;;;;5058701;28;20174;-78
2023/05/02 02:43:17;;;;;;;8.70;7.90;;;;;;;;;;5058908;28;20182;-78
2023/05/02 02:45:44;;;;;;;8.87;7.97;;;;;;;;;;5015036;28;20320;-78
2023/05/02 02:48:13;;;;;;;9.43;8.53;;;;;;;;;;5042458;28;20190;-78
2023/05/02 02:50:38;;;;;;;9.23;8.33;;;;;;;;;;5058099;28;20185;-78
2023/05/02 02:53:15;;;;;;;8.80;7.80;;;;;;;;;;5050244;28;20282;-78
2023/05/02 02:55:52;;;;;;;8.90;8.00;;;;;;;;;;5040348;28;20178;-78
2023/05/02 02:58:25;;;;;;;8.63;7.73;;;;;;;;;;5052433;28;20182;-78
2023/05/02 03:00:50;;;;;;;9.43;8.13;;;;;;;;;;5039511;28;20182;-78
2023/05/02 03:03:16;;;;;;;10.57;8.50;;;;;;;;;;5044683;28;20203;-78
2023/05/02 03:05:42;;;;;;;10.47;8.57;;;;;;;;;;5048542;28;20179;-78
2023/05/02 03:08:07;;;;;;;8.27;7.57;;;;;;;;;;5045911;28;20213;-78
2023/05/02 03:10:33;;;;;;;9.43;8.07;;;;;;;;;;5064594;28;20179;-78
2023/05/02 03:12:58;;;;;;;8.47;7.10;;;;;;;;;;5041525;28;20242;-78
2023/05/02 03:15:29;;;;;;;8.93;8.03;;;;;;;;;;5050781;28;20176;-78
2023/05/02 03:17:54;;;;;;;13.07;8.03;;;;;;;;;;5051408;28;20237;-78
2023/05/02 03:20:20;;;;;;;8.83;7.60;;;;;;;;;;5047994;28;20175;-78
2023/05/02 03:22:45;;;;;;;9.03;7.90;;;;;;;;;;5043891;28;20182;-78
2023/05/02 03:25:10;;;;;;;10.87;8.90;;;;;;;;;;5046740;28;20175;-78
2023/05/02 03:27:35;;;;;;;8.60;7.80;;;;;;;;;;5047688;28;20184;-78
2023/05/02 03:30:00;;;;;;;8.23;7.43;;;;;;;;;;5050348;28;20364;-78
2023/05/02 03:32:26;;;;;;;8.37;7.53;;;;;;;;;;5042924;28;20229;-78
2023/05/02 03:34:51;;;;;;;8.40;7.60;;;;;;;;;;5046707;28;20167;-78
2023/05/02 03:37:16;;;;;;;8.07;7.27;;;;;;;;;;5050989;28;20176;-78
2023/05/02 03:39:42;;;;;;;9.03;8.13;;;;;;;;;;5055535;28;20180;-78
2023/05/02 03:42:08;;;;;;;8.67;7.87;;;;;;;;;;5044991;28;20181;-78
2023/05/02 03:44:33;;;;;;;8.53;7.73;;;;;;;;;;5046547;28;20177;-78
2023/05/02 03:46:58;;;;;;;9.90;8.97;;;;;;;;;;5041802;28;20263;-78
2023/05/02 03:49:23;;;;;;;8.83;7.97;;;;;;;;;;5051458;28;20174;-78
2023/05/02 03:51:48;;;;;;;8.70;7.90;;;;;;;;;;5049106;28;20174;-78
2023/05/02 03:54:13;;;;;;;10.00;9.00;;;;;;;;;;5049556;28;20206;-78
2023/05/02 03:56:39;;;;;;;9.03;8.13;;;;;;;;;;5048237;28;20179;-78
2023/05/02 03:59:04;;;;;;;9.23;8.37;;;;;;;;;;5046115;28;20206;-78
2023/05/02 04:01:30;;;;;;;9.47;8.57;;;;;;;;;;5046798;28;20174;-78
2023/05/02 04:03:55;;;;;;;9.27;8.37;;;;;;;;;;5042103;28;20222;-78
2023/05/02 04:06:21;;;;;;;9.53;8.63;;;;;;;;;;5048586;28;20192;-78
2023/05/02 04:08:46;;;;;;;10.77;9.67;;;;;;;;;;5048592;28;20182;-78
2023/05/02 04:11:11;;;;;;;11.57;10.47;;;;;;;;;;5050399;28;20178;-78
2023/05/02 04:13:36;;;;;;;10.43;9.27;;;;;;;;;;5041059;28;20206;-78
2023/05/02 04:16:03;;;;;;;12.80;10.40;;;;;;;;;;5049333;28;20171;-78
2023/05/02 04:18:28;;;;;;;13.10;11.27;;;;;;;;;;5049559;28;20173;-78
2023/05/02 04:20:53;;;;;;;11.40;10.30;;;;;;;;;;5064368;28;20265;-78
2023/05/02 04:23:19;;;;;;;13.77;11.23;;;;;;;;;;5050660;28;20170;-78
2023/05/02 04:25:54;;;;;;;11.70;10.60;;;;;;;;;;5046804;28;20182;-78
2023/05/02 04:28:22;;;;;;;11.87;10.17;;;;;;;;;;5039028;28;20175;-78
2023/05/02 04:30:48;;;;;;;45.60;28.17;;;;;;;;;;5044721;28;20182;-80
2023/05/02 04:33:13;;;;;;;16.00;12.73;;;;;;;;;;5038275;28;20192;-78
2023/05/02 04:35:41;;;;;;;12.57;11.27;;;;;;;;;;5050198;28;20186;-78
2023/05/02 04:38:07;;;;;;;12.30;11.10;;;;;;;;;;5046277;28;20181;-78
2023/05/02 04:40:33;;;;;;;11.83;10.53;;;;;;;;;;5041489;28;20178;-78
2023/05/02 04:42:58;;;;;;;12.27;11.03;;;;;;;;;;5055672;28;20218;-78
2023/05/02 04:45:24;;;;;;;12.57;11.30;;;;;;;;;;5041936;28;20189;-78
2023/05/02 04:47:49;;;;;;;15.73;11.93;;;;;;;;;;5044582;28;20186;-79
2023/05/02 04:50:14;;;;;;;13.13;10.80;;;;;;;;;;5049906;28;20186;-78
2023/05/02 04:52:39;;;;;;;14.80;11.37;;;;;;;;;;5046662;28;20224;-78
2023/05/02 04:55:05;;;;;;;14.67;12.97;;;;;;;;;;5038746;28;20167;-78
2023/05/02 04:57:30;;;;;;;13.20;11.80;;;;;;;;;;5047756;28;20182;-78
2023/05/02 04:59:55;;;;;;;12.40;11.10;;;;;;;;;;5049772;28;20189;-78
2023/05/02 05:02:20;;;;;;;11.33;9.47;;;;;;;;;;5046690;28;20294;-78
2023/05/02 05:04:46;;;;;;;13.87;12.37;;;;;;;;;;5048375;28;20182;-78
2023/05/02 05:07:11;;;;;;;15.63;14.20;;;;;;;;;;5045137;28;20182;-78
2023/05/02 05:09:36;;;;;;;13.50;11.73;;;;;;;;;;5041806;28;20179;-79
2023/05/02 05:12:04;;;;;;;15.50;12.47;;;;;;;;;;5039448;28;20187;-78
2023/05/02 05:14:30;;;;;;;17.50;12.73;;;;;;;;;;5045422;28;20178;-78
2023/05/02 05:16:55;;;;;;;16.77;14.27;;;;;;;;;;5043349;28;20277;-78
2023/05/02 05:19:20;;;;;;;16.03;14.40;;;;;;;;;;5047347;28;20314;-78
2023/05/02 05:21:45;;;;;;;18.23;14.33;;;;;;;;;;5042717;28;20178;-79
2023/05/02 05:24:11;;;;;;;17.93;15.83;;;;;;;;;;5047767;28;20188;-79
2023/05/02 05:26:36;;;;;;;15.43;13.70;;;;;;;;;;5048420;28;20250;-79
2023/05/02 05:29:01;;;;;;;15.47;13.23;;;;;;;;;;5038534;28;20260;-79
2023/05/02 05:31:26;;;;;;;16.73;14.93;;;;;;;;;;5049316;28;20179;-78
2023/05/02 05:33:52;;;;;;;16.63;14.50;;;;;;;;;;5046326;28;20205;-79
2023/05/02 05:36:17;;;;;;;19.63;15.00;;;;;;;;;;5047988;28;20177;-79
2023/05/02 05:38:42;;;;;;;26.07;17.70;;;;;;;;;;5042173;28;20177;-79
2023/05/02 05:41:08;;;;;;;18.77;14.90;;;;;;;;;;5040417;28;20181;-78
2023/05/02 05:43:33;;;;;;;19.50;14.70;;;;;;;;;;5043492;28;20175;-78
2023/05/02 05:45:58;;;;;;;20.30;15.07;;;;;;;;;;5044677;28;20240;-79
2023/05/02 05:48:24;;;;;;;18.80;16.20;;;;;;;;;;5043472;28;20166;-79
2023/05/02 05:50:51;;;;;;;21.13;18.13;;;;;;;;;;5045225;28;20236;-79
2023/05/02 05:53:16;;;;;;;29.87;23.57;;;;;;;;;;5039482;28;20289;-78
2023/05/02 05:55:41;;;;;;;21.37;17.83;;;;;;;;;;5058554;28;20343;-78
2023/05/02 05:58:07;;;;;;;21.17;17.23;;;;;;;;;;5047484;28;20261;-78
2023/05/02 06:00:38;;;;;;;21.37;18.27;;;;;;;;;;5047193;28;20171;-79
2023/05/02 06:03:04;;;;;;;21.30;18.67;;;;;;;;;;5033908;28;20229;-79
2023/05/02 06:05:29;;;;;;;19.90;17.30;;;;;;;;;;5048312;28;20233;-79
2023/05/02 06:07:55;;;;;;;19.70;17.00;;;;;;;;;;5043553;28;20186;-79
2023/05/02 06:10:20;;;;;;;18.97;15.67;;;;;;;;;;5039269;28;20311;-79
2023/05/02 06:12:46;;;;;;;21.83;19.40;;;;;;;;;;5037911;28;20232;-79
2023/05/02 06:15:11;;;;;;;22.67;18.50;;;;;;;;;;5045016;28;20251;-79
2023/05/02 06:17:36;;;;;;;19.53;16.67;;;;;;;;;;5046452;28;20217;-74
2023/05/02 06:20:01;;;;;;;24.17;18.90;;;;;;;;;;5043582;28;20179;-74
2023/05/02 06:22:27;;;;;;;16.67;13.50;;;;;;;;;;5038685;28;20174;-79
2023/05/02 06:24:52;;;;;;;20.60;17.97;;;;;;;;;;5042592;28;20183;-78
2023/05/02 06:27:17;;;;;;;20.67;16.63;;;;;;;;;;5041900;28;20263;-79
2023/05/02 06:29:42;;;;;;;19.90;15.30;;;;;;;;;;5061042;28;20234;-79
2023/05/02 06:32:08;;;;;;;20.20;17.10;;;;;;;;;;5049314;28;20359;-80
2023/05/02 06:34:34;;;;;;;21.83;19.17;;;;;;;;;;5039743;28;20176;-79
2023/05/02 06:36:59;;;;;;;20.23;14.90;;;;;;;;;;5047308;28;20165;-79
2023/05/02 06:39:24;;;;;;;19.40;14.73;;;;;;;;;;5036459;28;20178;-79
2023/05/02 06:41:50;;;;;;;22.37;17.77;;;;;;;;;;5046517;28;20194;-79
2023/05/02 06:44:15;;;;;;;24.27;19.40;;;;;;;;;;5052410;28;20234;-79
2023/05/02 06:46:40;;;;;;;22.10;19.70;;;;;;;;;;5044252;28;20215;-79
2023/05/02 06:49:05;;;;;;;22.80;16.90;;;;;;;;;;5051596;28;20194;-79
2023/05/02 06:51:31;;;;;;;24.90;18.77;;;;;;;;;;5051654;28;20197;-79
2023/05/02 06:53:56;;;;;;;21.27;16.23;;;;;;;;;;5059007;28;20206;-79
2023/05/02 06:56:22;;;;;;;19.07;15.60;;;;;;;;;;5050597;28;20176;-79
2023/05/02 06:58:48;;;;;;;24.97;18.30;;;;;;;;;;5050473;28;20179;-79
2023/05/02 07:01:13;;;;;;;28.33;19.53;;;;;;;;;;5050680;28;20182;-79
2023/05/02 07:03:38;;;;;;;22.40;18.43;;;;;;;;;;5045007;28;20195;-79
2023/05/02 07:06:03;;;;;;;24.80;20.97;;;;;;;;;;5045301;28;20180;-79
2023/05/02 07:08:28;;;;;;;25.57;19.37;;;;;;;;;;5050454;28;20180;-80
2023/05/02 07:10:54;;;;;;;24.90;19.50;;;;;;;;;;5049617;28;20175;-79
2023/05/02 07:13:19;;;;;;;28.47;23.00;;;;;;;;;;5052299;28;20203;-79
2023/05/02 07:15:44;;;;;;;27.20;21.53;;;;;;;;;;5047939;28;20184;-80
2023/05/02 07:18:10;;;;;;;29.40;22.73;;;;;;;;;;5048571;28;20168;-79
2023/05/02 07:20:35;;;;;;;30.50;24.13;;;;;;;;;;5043258;28;20173;-79
2023/05/02 07:23:00;;;;;;;22.77;17.03;;;;;;;;;;5064084;28;20186;-79
2023/05/02 07:25:26;;;;;;;30.67;24.10;;;;;;;;;;5040191;28;20264;-79
2023/05/02 07:27:51;;;;;;;28.93;22.40;;;;;;;;;;5050385;28;20266;-79
2023/05/02 07:30:16;;;;;;;29.30;23.83;;;;;;;;;;5049512;28;20223;-79
2023/05/02 07:32:41;;;;;;;29.03;23.57;;;;;;;;;;5043838;28;20191;-79
2023/05/02 07:35:07;;;;;;;32.17;26.63;;;;;;;;;;5040666;28;20210;-79
2023/05/02 07:37:35;;;;;;;31.67;23.17;;;;;;;;;;5042393;28;20180;-79
2023/05/02 07:40:02;;;;;;;34.77;27.47;;;;;;;;;;5054661;28;20187;-79
2023/05/02 07:42:30;;;;;;;37.07;29.77;;;;;;;;;;5053401;28;20175;-80
2023/05/02 07:44:56;;;;;;;37.37;26.57;;;;;;;;;;5048959;28;20211;-79
2023/05/02 07:47:21;;;;;;;32.07;23.97;;;;;;;;;;5049039;28;20212;-80
2023/05/02 07:49:49;;;;;;;34.30;23.10;;;;;;;;;;5047526;28;20175;-80
2023/05/02 07:52:15;;;;;;;35.00;25.43;;;;;;;;;;5062325;28;20178;-80
2023/05/02 07:54:40;;;;;;;33.43;24.93;;;;;;;;;;5042114;28;20172;-79
2023/05/02 07:57:07;;;;;;;39.13;28.97;;;;;;;;;;5052028;28;20172;-79
2023/05/02 07:59:32;;;;;;;38.00;26.97;;;;;;;;;;5045221;28;20171;-79
2023/05/02 08:01:58;;;;;;;35.27;25.70;;;;;;;;;;5042477;28;20180;-80
2023/05/02 08:04:23;;;;;;;36.13;27.17;;;;;;;;;;5040406;28;20261;-80
2023/05/02 08:06:48;;;;;;;39.53;28.93;;;;;;;;;;5049109;28;20207;-80
2023/05/02 08:09:13;;;;;;;39.90;28.73;;;;;;;;;;5047448;28;20245;-79
2023/05/02 08:11:38;;;;;;;36.60;27.93;;;;;;;;;;5043289;28;20188;-80
2023/05/02 08:14:04;;;;;;;40.17;31.77;;;;;;;;;;5050848;28;20205;-80
2023/05/02 08:16:29;;;;;;;36.77;24.67;;;;;;;;;;5051257;28;20167;-80
2023/05/02 08:18:54;;;;;;;38.07;28.30;;;;;;;;;;5039739;28;20230;-80
2023/05/02 08:21:19;;;;;;;39.40;26.23;;;;;;;;;;5042485;28;20199;-80
2023/05/02 08:23:45;;;;;;;40.23;27.10;;;;;;;;;;5048844;28;20179;-80
2023/05/02 08:26:10;;;;;;;35.23;25.03;;;;;;;;;;5047452;28;20185;-80
2023/05/02 08:28:35;;;;;;;35.60;28.13;;;;;;;;;;5048933;28;20251;-80
2023/05/02 08:31:01;;;;;;;34.23;24.07;;;;;;;;;;5046552;28;20184;-80
2023/05/02 08:33:26;;;;;;;40.10;28.33;;;;;;;;;;5042731;28;20196;-80
2023/05/02 08:35:52;;;;;;;37.33;28.20;;;;;;;;;;5048962;28;20180;-80
2023/05/02 08:38:17;;;;;;;33.50;25.10;;;;;;;;;;5047168;28;20237;-80
2023/05/02 08:40:42;;;;;;;37.10;26.17;;;;;;;;;;5041495;28;20169;-80
2023/05/02 08:43:09;;;;;;;40.57;29.63;;;;;;;;;;5050704;28;20192;-80
2023/05/02 08:45:38;;;;;;;40.93;31.73;;;;;;;;;;5038120;28;20176;-80
2023/05/02 08:48:09;;;;;;;39.63;29.23;;;;;;;;;;5045081;28;20186;-80
2023/05/02 08:50:36;;;;;;;43.47;34.17;;;;;;;;;;5045181;28;20177;-80
2023/05/02 08:53:03;;;;;;;43.60;33.50;;;;;;;;;;5048188;28;20311;-79
2023/05/02 08:55:28;;;;;;;43.83;32.60;;;;;;;;;;5056976;28;20265;-80
2023/05/02 08:57:56;;;;;;;41.50;28.23;;;;;;;;;;5050022;28;20327;-80
2023/05/02 09:00:21;;;;;;;45.83;36.30;;;;;;;;;;5039809;28;20189;-80
2023/05/02 09:03:03;;;;;;;43.53;36.27;;;;;;;;;;5043462;28;20205;-80
2023/05/02 09:05:31;;;;;;;44.27;34.33;;;;;;;;;;5043456;28;20177;-80
2023/05/02 09:07:56;;;;;;;46.17;32.37;;;;;;;;;;5045011;28;20193;-80
2023/05/02 09:10:25;;;;;;;40.07;30.33;;;;;;;;;;5041987;28;20177;-80
2023/05/02 09:12:50;;;;;;;39.43;29.37;;;;;;;;;;5042332;28;20203;-80
2023/05/02 09:15:16;;;;;;;37.40;31.50;;;;;;;;;;5039930;28;20185;-81
2023/05/02 09:17:42;;;;;;;40.07;31.10;;;;;;;;;;5063519;28;20191;-80
2023/05/02 09:20:09;;;;;;;37.70;28.53;;;;;;;;;;5039274;28;20180;-80
2023/05/02 09:22:34;;;;;;;40.67;30.87;;;;;;;;;;5040724;28;20250;-80
2023/05/02 09:25:00;;;;;;;36.17;29.87;;;;;;;;;;5046104;28;20272;-80
2023/05/02 09:27:26;;;;;;;37.57;31.43;;;;;;;;;;5047622;28;20208;-80
2023/05/02 09:29:51;;;;;;;34.40;26.47;;;;;;;;;;5040603;28;20241;-80
2023/05/02 09:32:16;;;;;;;31.87;25.97;;;;;;;;;;5034872;28;20190;-81
2023/05/02 09:35:01;;;;;;;35.50;30.47;;;;;;;;;;5047121;28;20235;-79
2023/05/02 09:37:33;;;;;;;34.20;27.00;;;;;;;;;;5055050;28;20205;-80
2023/05/02 09:40:05;;;;;;;33.10;25.90;;;;;;;;;;5045837;28;20175;-80
2023/05/02 09:42:31;;;;;;;33.10;27.77;;;;;;;;;;5045061;28;20245;-80
2023/05/02 09:44:56;;;;;;;33.33;24.07;;;;;;;;;;5043060;28;20179;-80
2023/05/02 09:47:27;;;;;;;31.53;26.43;;;;;;;;;;5044202;28;20180;-80
2023/05/02 09:49:53;;;;;;;30.07;24.67;;;;;;;;;;5055997;28;20182;-80
2023/05/02 09:52:20;;;;;;;32.70;27.63;;;;;;;;;;5043614;28;20264;-81
2023/05/02 09:54:46;;;;;;;32.00;25.30;;;;;;;;;;5038652;28;20179;-81
2023/05/02 09:57:11;;;;;;;26.10;23.23;;;;;;;;;;5041610;28;20171;-81
2023/05/02 09:59:37;;;;;;;31.90;26.63;;;;;;;;;;5043538;28;20163;-81
2023/05/02 10:02:03;;;;;;;26.27;21.30;;;;;;;;;;5037474;28;20223;-81
2023/05/02 10:04:29;;;;;;;26.33;22.70;;;;;;;;;;5048793;28;20174;-81
2023/05/02 10:06:56;;;;;;;27.90;22.97;;;;;;;;;;5056222;28;20259;-81
2023/05/02 10:09:21;;;;;;;27.03;23.93;;;;;;;;;;5039031;28;20182;-81
2023/05/02 10:11:49;;;;;;;27.37;23.37;;;;;;;;;;5038631;28;20177;-81
2023/05/02 10:14:15;;;;;;;23.47;21.00;;;;;;;;;;5049498;28;20201;-81
2023/05/02 10:17:00;;;;;;;27.97;22.67;;;;;;;;;;5042177;28;20175;-82
2023/05/02 10:19:31;;;;;;;25.40;22.03;;;;;;;;;;5039004;28;20183;-81
2023/05/02 10:21:58;;;;;;;25.70;22.73;;;;;;;;;;5039141;28;20175;-80
2023/05/02 10:24:23;;;;;;;26.23;23.07;;;;;;;;;;5041118;28;20186;-81
2023/05/02 10:26:49;;;;;;;24.63;22.10;;;;;;;;;;5044868;28;20266;-81
2023/05/02 10:29:14;;;;;;;23.83;21.30;;;;;;;;;;5053334;28;20238;-80
2023/05/02 10:31:41;;;;;;;27.47;24.10;;;;;;;;;;5046135;28;20264;-81
2023/05/02 10:34:09;;;;;;;22.37;19.67;;;;;;;;;;5047863;28;20223;-81
2023/05/02 10:36:34;;;;;;;24.03;21.50;;;;;;;;;;5036494;28;20268;-81
2023/05/02 10:39:01;;;;;;;25.30;21.13;;;;;;;;;;5048636;28;20259;-81
2023/05/02 10:41:28;;;;;;;32.97;22.20;;;;;;;;;;5057841;28;20269;-82
2023/05/02 10:43:53;;;;;;;23.93;21.37;;;;;;;;;;5041956;28;20292;-81
2023/05/02 10:46:30;;;;;;;24.93;22.30;;;;;;;;;;5061982;28;20299;-81
2023/05/02 10:49:14;;;;;;;24.80;22.10;;;;;;;;;;5037136;28;20292;-81
2023/05/02 10:51:40;;;;;;;23.67;21.27;;;;;;;;;;5044188;28;20178;-81
2023/05/02 10:54:22;;;;;;;22.83;20.40;;;;;;;;;;5038272;28;20256;-81
2023/05/02 10:57:03;;;;;;;21.80;17.27;;;;;;;;;;5040674;28;20179;-81
2023/05/02 10:59:29;;;;;;;23.07;20.63;;;;;;;;;;5042415;28;20174;-81
2023/05/02 11:01:55;;;;;;;21.43;19.30;;;;;;;;;;5037082;28;20186;-82
2023/05/02 11:04:20;;;;;;;22.40;20.10;;;;;;;;;;5041009;28;20170;-82
2023/05/02 11:07:04;;;;;;;21.33;19.13;;;;;;;;;;5054876;28;20174;-81
2023/05/02 11:09:30;;;;;;;20.57;18.10;;;;;;;;;;5040957;28;20179;-81
2023/05/02 11:11:56;;;;;;;21.80;18.67;;;;;;;;;;5059853;28;20174;-81
2023/05/02 11:14:24;;;;;;;22.90;20.13;;;;;;;;;;5041333;28;20203;-81
2023/05/02 11:16:58;;;;;;;22.40;19.83;;;;;;;;;;5044789;28;20170;-81
2023/05/02 11:19:27;;;;;;;19.93;17.77;;;;;;;;;;5041217;28;20173;-81
2023/05/02 11:21:56;;;;;;;21.57;18.70;;;;;;;;;;5040917;28;20197;-81
2023/05/02 11:24:41;;;;;;;19.97;17.90;;;;;;;;;;5039801;28;20182;-81
2023/05/02 11:27:24;;;;;;;19.60;17.60;;;;;;;;;;5045452;28;20299;-81
2023/05/02 11:30:08;;;;;;;18.40;15.57;;;;;;;;;;5046385;28;20231;-81
2023/05/02 11:32:43;;;;;;;16.60;13.57;;;;;;;;;;5050570;28;20202;-81
2023/05/02 11:35:13;;;;;;;20.27;17.77;;;;;;;;;;5064289;28;20269;-81
2023/05/02 11:37:39;;;;;;;17.33;15.40;;;;;;;;;;5045717;28;20195;-81
2023/05/02 11:40:13;;;;;;;20.23;16.53;;;;;;;;;;5047751;28;20171;-82
2023/05/02 11:42:38;;;;;;;20.77;17.43;;;;;;;;;;5035589;28;20181;-81
2023/05/02 11:45:04;;;;;;;25.53;19.27;;;;;;;;;;5044543;28;20171;-81
2023/05/02 11:47:31;;;;;;;22.57;17.67;;;;;;;;;;5041527;28;20254;-81
2023/05/02 11:49:56;;;;;;;23.63;18.50;;;;;;;;;;5051378;28;20199;-81
2023/05/02 11:52:22;;;;;;;20.37;17.20;;;;;;;;;;5041472;28;20261;-81
2023/05/02 11:54:48;;;;;;;23.13;18.93;;;;;;;;;;5061898;28;20189;-81
2023/05/02 11:57:13;;;;;;;21.90;18.90;;;;;;;;;;5045130;28;20175;-81
2023/05/02 11:59:48;;;;;;;25.30;21.20;;;;;;;;;;5047545;28;20187;-81
2023/05/02 12:02:13;;;;;;;25.50;22.50;;;;;;;;;;5037234;28;20202;-81
2023/05/02 12:04:43;;;;;;;26.53;20.60;;;;;;;;;;5042769;28;20189;-81
2023/05/02 12:07:08;;;;;;;26.63;22.40;;;;;;;;;;5046367;28;20283;-81
2023/05/02 12:09:33;;;;;;;29.40;22.07;;;;;;;;;;5042307;28;20212;-81
2023/05/02 12:11:59;;;;;;;31.67;25.90;;;;;;;;;;5039205;28;20196;-81
2023/05/02 12:14:28;;;;;;;28.83;24.33;;;;;;;;;;5051227;28;20185;-81
2023/05/02 12:16:54;;;;;;;25.03;20.50;;;;;;;;;;5051796;28;20174;-81
2023/05/02 12:19:20;;;;;;;27.93;22.87;;;;;;;;;;5051751;28;20162;-81
2023/05/02 12:21:46;;;;;;;26.30;22.60;;;;;;;;;;5061172;28;20177;-81
2023/05/02 12:24:13;;;;;;;25.83;21.40;;;;;;;;;;5047183;28;20178;-81
2023/05/02 12:26:38;;;;;;;27.17;21.57;;;;;;;;;;5045973;28;20174;-81
2023/05/02 12:29:05;;;;;;;27.57;21.20;;;;;;;;;;5042715;28;20283;-81
2023/05/02 12:31:30;;;;;;;27.43;23.73;;;;;;;;;;5037053;28;20195;-81
2023/05/02 12:33:58;;;;;;;30.23;22.93;;;;;;;;;;5049593;28;20232;-81
2023/05/02 12:36:23;;;;;;;30.23;23.97;;;;;;;;;;5037733;28;20265;-81
2023/05/02 12:38:53;;;;;;;25.17;19.70;;;;;;;;;;5055987;28;20257;-81
2023/05/02 12:41:29;;;;;;;18.73;15.53;;;;;;;;;;5038179;28;20179;-81
2023/05/02 12:43:54;;;;;;;22.93;20.70;;;;;;;;;;5039045;28;20194;-81
2023/05/02 12:46:19;;;;;;;19.10;15.57;;;;;;;;;;5043713;28;20192;-81
2023/05/02 12:48:45;;;;;;;22.00;17.40;;;;;;;;;;5059798;28;20188;-81
2023/05/02 12:51:23;;;;;;;18.90;15.83;;;;;;;;;;5047254;28;20248;-81
2023/05/02 12:53:48;;;;;;;20.40;16.27;;;;;;;;;;5041998;28;20198;-81
2023/05/02 12:56:13;;;;;;;20.27;16.43;;;;;;;;;;5044708;28;20269;-81
2023/05/02 12:58:39;;;;;;;16.90;15.10;;;;;;;;;;5042176;28;20178;-81
2023/05/02 13:01:06;;;;;;;16.33;14.53;;;;;;;;;;5039731;28;20202;-81
2023/05/02 13:03:31;;;;;;;19.17;14.60;;;;;;;;;;5041080;28;20289;-81
2023/05/02 13:05:56;;;;;;;17.50;12.70;;;;;;;;;;5043217;28;20261;-80
2023/05/02 13:08:22;;;;;;;14.77;12.27;;;;;;;;;;5043029;28;20179;-81
2023/05/02 13:10:47;;;;;;;14.80;12.07;;;;;;;;;;5042469;28;20185;-82
2023/05/02 13:13:12;;;;;;;17.23;15.10;;;;;;;;;;5042705;28;20269;-81
2023/05/02 13:15:38;;;;;;;20.20;15.20;;;;;;;;;;5049182;28;20274;-81
2023/05/02 13:18:03;;;;;;;17.97;15.07;;;;;;;;;;5041430;28;20303;-81
2023/05/02 13:20:29;;;;;;;15.80;12.10;;;;;;;;;;5047658;28;20177;-82
2023/05/02 13:22:54;;;;;;;15.30;13.67;;;;;;;;;;5036922;28;20187;-77
2023/05/02 13:25:19;;;;;;;15.70;13.90;;;;;;;;;;5042840;28;20182;-82
2023/05/02 13:27:44;;;;;;;16.17;11.77;;;;;;;;;;5045394;28;20184;-81
2023/05/02 13:30:10;;;;;;;15.73;13.07;;;;;;;;;;5043191;28;20231;-81
2023/05/02 13:32:35;;;;;;;19.70;15.20;;;;;;;;;;5037341;28;20228;-81
2023/05/02 13:35:02;;;;;;;18.43;14.77;;;;;;;;;;5040922;28;20261;-81
2023/05/02 13:37:29;;;;;;;23.00;16.00;;;;;;;;;;5044148;28;20201;-81
2023/05/02 13:39:54;;;;;;;16.67;14.90;;;;;;;;;;5038997;28;20183;-81
2023/05/02 13:42:19;;;;;;;16.60;13.13;;;;;;;;;;5037145;28;20176;-81
2023/05/02 13:44:45;;;;;;;14.37;11.50;;;;;;;;;;5044233;28;20281;-81
2023/05/02 13:47:10;;;;;;;13.13;11.83;;;;;;;;;;5037552;28;20213;-82
2023/05/02 13:49:35;;;;;;;11.40;9.90;;;;;;;;;;5046487;28;20184;-81
2023/05/02 13:52:00;;;;;;;12.23;10.63;;;;;;;;;;5042665;28;20256;-81
2023/05/02 13:54:25;;;;;;;12.77;10.63;;;;;;;;;;5039451;28;20211;-81
2023/05/02 13:56:51;;;;;;;13.83;11.33;;;;;;;;;;5039439;28;20190;-81
2023/05/02 13:59:16;;;;;;;15.20;12.07;;;;;;;;;;5047747;28;20226;-81
2023/05/02 14:01:41;;;;;;;13.80;10.87;;;;;;;;;;5048534;28;20174;-81
2023/05/02 14:04:07;;;;;;;14.70;11.37;;;;;;;;;;5046756;28;20246;-81
2023/05/02 14:06:35;;;;;;;13.70;10.70;;;;;;;;;;5044671;28;20182;-81
2023/05/02 14:09:01;;;;;;;12.23;10.30;;;;;;;;;;5039001;28;20189;-82
2023/05/02 14:11:26;;;;;;;12.13;10.63;;;;;;;;;;5060723;28;20203;-81
2023/05/02 14:13:51;;;;;;;11.47;9.80;;;;;;;;;;5058670;28;20284;-81
2023/05/02 14:16:16;;;;;;;11.70;10.50;;;;;;;;;;5043205;28;20268;-81
2023/05/02 14:18:42;;;;;;;11.90;10.50;;;;;;;;;;5037213;28;20187;-82
2023/05/02 14:21:07;;;;;;;12.70;8.77;;;;;;;;;;5041495;28;20214;-81